Time;durP1;ratioP1;P1;durP2;ratioP2;P2;SDS_P1;SDS_P2;PMS_P1;PMS_P2;Temp;Humidity;BMP_temperature;BMP_pressure;BME280_temperature;BME280_humidity;BME280_pressure;Samples;Min_cycle;Max_cycle;Signal;HPM_P1;HPM_P2
2022/02/20 00:02:12;;;;;;;5.70;2.73;;;4.60;99.90;;;;;;4993932;28;20212;-54
2022/02/20 00:04:40;;;;;;;6.20;2.40;;;4.50;99.90;;;;;;4993690;28;20610;-55
2022/02/20 00:07:05;;;;;;;5.37;2.50;;;4.40;99.90;;;;;;4993790;28;20169;-54
2022/02/20 00:09:31;;;;;;;6.93;2.80;;;4.50;99.90;;;;;;4993600;28;20181;-56
2022/02/20 00:11:57;;;;;;;6.27;2.77;;;4.50;99.90;;;;;;4993826;28;20280;-54
2022/02/20 00:14:22;;;;;;;5.13;2.57;;;4.60;99.90;;;;;;4993850;28;20204;-55
2022/02/20 00:16:48;;;;;;;5.23;2.40;;;4.50;99.90;;;;;;4993705;28;20640;-55
2022/02/20 00:19:13;;;;;;;8.13;3.00;;;4.40;99.90;;;;;;4993416;28;20196;-57
2022/02/20 00:21:39;;;;;;;9.57;3.90;;;4.50;99.90;;;;;;4993592;28;20193;-55
2022/02/20 00:24:04;;;;;;;5.23;2.53;;;4.80;99.90;;;;;;4993458;28;20177;-59
2022/02/20 00:26:30;;;;;;;4.00;2.23;;;4.40;99.90;;;;;;4993230;28;20197;-56
2022/02/20 00:28:56;;;;;;;5.33;2.30;;;4.20;99.90;;;;;;4993087;28;20252;-56
2022/02/20 00:31:21;;;;;;;4.67;2.37;;;4.20;99.90;;;;;;4993377;28;20205;-55
2022/02/20 00:33:47;;;;;;;4.03;2.27;;;4.30;99.90;;;;;;4993442;28;20177;-56
2022/02/20 00:36:12;;;;;;;5.30;2.60;;;4.40;99.90;;;;;;4991977;28;20209;-56
2022/02/20 00:38:38;;;;;;;4.27;2.30;;;4.30;99.90;;;;;;4993099;28;20197;-56
2022/02/20 00:41:04;;;;;;;5.87;2.40;;;4.20;99.90;;;;;;4991861;28;20181;-54
2022/02/20 00:43:29;;;;;;;6.60;2.57;;;4.40;99.90;;;;;;4992660;28;20256;-55
2022/02/20 00:45:55;;;;;;;4.30;2.50;;;4.30;99.90;;;;;;4992984;28;20240;-54
2022/02/20 00:48:21;;;;;;;7.17;2.80;;;4.30;99.90;;;;;;4992833;28;20287;-54
2022/02/20 00:50:47;;;;;;;3.43;1.73;;;4.40;99.90;;;;;;4992977;28;20260;-54
2022/02/20 00:53:13;;;;;;;6.07;2.53;;;4.30;99.90;;;;;;4992961;28;20173;-54
2022/02/20 00:55:39;;;;;;;4.47;2.23;;;;;;;;;;4992801;28;20264;-54
2022/02/20 00:58:05;;;;;;;6.03;2.37;;;4.50;99.90;;;;;;4992746;28;20208;-55
2022/02/20 01:00:31;;;;;;;3.77;2.33;;;;;;;;;;4992805;28;20184;-57
2022/02/20 01:02:56;;;;;;;4.40;2.23;;;4.20;99.90;;;;;;4993028;28;20177;-56
2022/02/20 01:05:22;;;;;;;5.33;2.20;;;;;;;;;;4992707;28;20207;-53
2022/02/20 01:07:48;;;;;;;4.13;2.40;;;4.10;99.90;;;;;;4992740;28;20197;-54
2022/02/20 01:10:16;;;;;;;4.20;2.10;;;3.90;99.90;;;;;;4992501;28;20184;-55
2022/02/20 01:12:42;;;;;;;3.93;2.20;;;3.80;99.90;;;;;;4991595;28;20177;-56
2022/02/20 01:15:09;;;;;;;4.57;2.30;;;3.80;99.90;;;;;;4992367;28;20186;-55
2022/02/20 01:17:35;;;;;;;6.23;2.40;;;3.60;99.90;;;;;;4992672;28;20216;-56
2022/02/20 01:20:01;;;;;;;5.13;2.20;;;3.90;99.90;;;;;;4992625;28;20542;-54
2022/02/20 01:22:28;;;;;;;3.30;2.07;;;3.30;99.90;;;;;;4992672;28;20177;-56
2022/02/20 01:24:55;;;;;;;4.17;2.13;;;;;;;;;;4992435;28;20196;-56
2022/02/20 01:27:23;;;;;;;5.20;2.20;;;3.20;99.90;;;;;;4992700;28;20205;-55
2022/02/20 01:29:49;;;;;;;4.73;2.13;;;;;;;;;;4992411;28;20173;-57
2022/02/20 01:32:15;;;;;;;5.00;2.00;;;;;;;;;;4992533;28;20231;-56
2022/02/20 01:34:41;;;;;;;4.97;1.90;;;3.60;99.90;;;;;;4992654;28;20189;-57
2022/02/20 01:37:06;;;;;;;6.57;2.37;;;3.70;99.90;;;;;;4992438;28;20174;-55
2022/02/20 01:39:32;;;;;;;4.47;2.20;;;3.40;99.90;;;;;;4992443;28;20264;-54
2022/02/20 01:41:58;;;;;;;6.50;2.10;;;3.70;99.90;;;;;;4992525;28;20662;-53
2022/02/20 01:44:23;;;;;;;10.03;2.57;;;3.50;99.90;;;;;;4992471;28;20204;-57
2022/02/20 01:46:50;;;;;;;5.67;1.73;;;3.80;99.90;;;;;;4992431;28;20192;-55
2022/02/20 01:49:18;;;;;;;4.63;2.20;;;3.70;99.90;;;;;;4992152;28;20248;-56
2022/02/20 01:51:44;;;;;;;4.47;1.63;;;3.90;99.90;;;;;;4992264;28;20185;-57
2022/02/20 01:54:11;;;;;;;3.37;2.00;;;4.10;99.90;;;;;;4994509;28;20546;-58
2022/02/20 01:56:37;;;;;;;5.33;2.07;;;4.00;99.90;;;;;;4996173;28;20177;-54
2022/02/20 01:59:04;;;;;;;4.40;2.07;;;4.30;99.90;;;;;;4995838;28;20193;-58
2022/02/20 02:01:30;;;;;;;5.67;2.20;;;4.20;99.90;;;;;;4996117;28;20657;-53
2022/02/20 02:03:55;;;;;;;6.80;2.07;;;4.40;99.90;;;;;;4996186;28;20252;-56
2022/02/20 02:06:21;;;;;;;4.60;2.17;;;4.40;99.90;;;;;;4995837;28;20207;-57
2022/02/20 02:08:47;;;;;;;5.00;2.00;;;4.00;99.90;;;;;;4995898;28;20216;-54
2022/02/20 02:11:13;;;;;;;4.73;1.90;;;4.00;99.90;;;;;;4996106;28;20220;-55
2022/02/20 02:13:39;;;;;;;6.40;2.07;;;4.50;99.90;;;;;;4995876;28;20203;-54
2022/02/20 02:16:05;;;;;;;5.07;2.10;;;4.10;99.90;;;;;;4995831;28;20272;-55
2022/02/20 02:18:31;;;;;;;5.10;2.20;;;4.40;99.90;;;;;;4995677;28;20216;-55
2022/02/20 02:20:56;;;;;;;6.00;2.10;;;3.60;99.90;;;;;;4995719;28;20176;-56
2022/02/20 02:23:22;;;;;;;4.67;1.93;;;3.80;99.90;;;;;;4994585;28;20185;-55
2022/02/20 02:25:49;;;;;;;4.93;2.00;;;3.80;99.90;;;;;;4995644;28;20212;-57
2022/02/20 02:28:15;;;;;;;5.60;1.97;;;3.90;99.90;;;;;;4995499;28;20186;-56
2022/02/20 02:30:41;;;;;;;3.30;1.80;;;3.90;99.90;;;;;;4995546;28;20185;-54
2022/02/20 02:33:07;;;;;;;3.90;2.10;;;4.20;99.90;;;;;;4995627;28;20179;-56
2022/02/20 02:35:33;;;;;;;5.30;1.90;;;;;;;;;;4994135;28;20192;-57
2022/02/20 02:37:59;;;;;;;4.73;1.97;;;;;;;;;;4995554;28;20295;-56
2022/02/20 02:40:25;;;;;;;4.13;2.10;;;4.10;99.90;;;;;;4995505;28;20177;-55
2022/02/20 02:42:51;;;;;;;2.70;1.83;;;3.90;99.90;;;;;;4995595;28;20173;-54
2022/02/20 02:45:16;;;;;;;5.00;1.90;;;3.70;99.90;;;;;;4995243;28;20301;-50
2022/02/20 02:47:46;;;;;;;6.10;1.83;;;3.60;99.90;;;;;;4995426;28;20299;-51
2022/02/20 02:50:12;;;;;;;5.60;2.10;;;3.40;99.90;;;;;;4995047;28;20177;-52
2022/02/20 02:52:38;;;;;;;3.63;1.90;;;3.60;99.90;;;;;;4995289;28;20516;-51
2022/02/20 02:55:05;;;;;;;5.33;1.90;;;3.90;99.90;;;;;;4995219;28;20650;-56
2022/02/20 02:57:30;;;;;;;3.07;1.60;;;3.90;99.90;;;;;;4995375;28;20232;-53
2022/02/20 02:59:56;;;;;;;4.07;1.67;;;;;;;;;;4993752;28;20216;-56
2022/02/20 03:02:22;;;;;;;2.83;1.50;;;;;;;;;;4995151;28;20545;-56
2022/02/20 03:04:48;;;;;;;5.30;1.67;;;3.90;99.90;;;;;;4994060;28;20287;-55
2022/02/20 03:07:14;;;;;;;4.00;1.83;;;4.00;99.90;;;;;;4995040;28;20184;-52
2022/02/20 03:09:40;;;;;;;2.77;1.50;;;3.60;99.90;;;;;;4994923;28;20224;-51
2022/02/20 03:12:08;;;;;;;4.80;1.87;;;3.40;99.90;;;;;;4995070;28;20239;-52
2022/02/20 03:14:34;;;;;;;4.47;1.47;;;3.50;99.90;;;;;;4994808;28;20260;-53
2022/02/20 03:17:00;;;;;;;4.73;1.70;;;;;;;;;;4994873;28;20205;-53
2022/02/20 03:19:25;;;;;;;2.53;1.50;;;4.10;99.90;;;;;;4994664;28;20188;-56
2022/02/20 03:21:51;;;;;;;2.40;1.63;;;3.80;99.90;;;;;;4994834;28;20643;-50
2022/02/20 03:24:17;;;;;;;3.87;1.60;;;3.50;99.90;;;;;;4994809;28;20173;-53
2022/02/20 03:26:42;;;;;;;2.30;1.50;;;4.00;99.90;;;;;;4994570;28;20673;-54
2022/02/20 03:29:07;;;;;;;3.20;1.60;;;3.70;99.90;;;;;;4994366;28;20675;-53
2022/02/20 03:31:33;;;;;;;3.10;1.40;;;3.80;99.90;;;;;;4994632;28;20237;-50
2022/02/20 03:33:59;;;;;;;3.50;1.77;;;3.80;99.90;;;;;;4994167;28;20201;-57
2022/02/20 03:36:24;;;;;;;6.03;1.80;;;;;;;;;;4994335;28;20344;-56
2022/02/20 03:38:51;;;;;;;2.73;1.43;;;3.20;99.90;;;;;;4994281;28;20252;-53
2022/02/20 03:41:17;;;;;;;4.67;1.80;;;;;;;;;;4994445;28;20566;-57
2022/02/20 03:43:43;;;;;;;5.07;1.90;;;3.50;99.90;;;;;;4994322;28;20589;-52
2022/02/20 03:46:09;;;;;;;4.60;1.87;;;3.40;99.90;;;;;;4994010;28;20192;-52
2022/02/20 03:48:34;;;;;;;4.47;1.53;;;3.70;99.90;;;;;;4994042;28;20216;-55
2022/02/20 03:51:00;;;;;;;3.97;1.70;;;3.70;99.90;;;;;;4992965;28;20214;-57
2022/02/20 03:53:26;;;;;;;3.97;1.70;;;;;;;;;;4994125;28;20173;-57
2022/02/20 03:55:52;;;;;;;2.90;1.77;;;;;;;;;;4994011;28;20212;-57
2022/02/20 03:58:17;;;;;;;2.60;1.80;;;3.30;99.90;;;;;;4994010;28;20193;-56
2022/02/20 04:00:43;;;;;;;3.93;1.73;;;3.40;99.90;;;;;;4993872;28;20230;-56
2022/02/20 04:03:08;;;;;;;4.10;1.60;;;3.20;99.90;;;;;;4993902;28;20193;-53
2022/02/20 04:05:34;;;;;;;3.47;1.90;;;;;;;;;;4993961;28;20312;-57
2022/02/20 04:08:00;;;;;;;3.07;1.60;;;3.10;99.90;;;;;;4993734;28;20221;-53
2022/02/20 04:10:26;;;;;;;4.50;1.63;;;3.40;99.90;;;;;;4993939;28;20647;-52
2022/02/20 04:12:51;;;;;;;2.87;1.90;;;3.50;99.90;;;;;;4993968;28;20173;-54
2022/02/20 04:15:17;;;;;;;3.73;1.80;;;;;;;;;;4993495;28;20176;-57
2022/02/20 04:17:47;;;;;;;3.10;1.80;;;3.40;99.90;;;;;;4993507;28;20197;-55
2022/02/20 04:20:15;;;;;;;3.83;1.40;;;3.40;99.90;;;;;;4993472;28;20189;-56
2022/02/20 04:22:42;;;;;;;2.77;1.50;;;3.40;99.90;;;;;;4993833;28;20196;-53
2022/02/20 04:25:09;;;;;;;3.63;1.80;;;3.60;99.90;;;;;;4993490;28;20299;-56
2022/02/20 04:27:36;;;;;;;3.90;1.60;;;3.40;99.90;;;;;;4993569;28;20185;-57
2022/02/20 04:30:02;;;;;;;2.37;1.57;;;3.20;99.90;;;;;;4993220;28;20187;-55
2022/02/20 04:32:28;;;;;;;3.43;1.70;;;3.60;99.90;;;;;;4993340;28;20277;-54
2022/02/20 04:34:53;;;;;;;2.70;1.40;;;3.90;99.90;;;;;;4993299;28;20252;-55
2022/02/20 04:37:19;;;;;;;4.83;1.63;;;3.40;99.90;;;;;;4993309;28;20288;-53
2022/02/20 04:39:44;;;;;;;3.57;1.90;;;3.70;99.90;;;;;;4993262;28;20538;-56
2022/02/20 04:42:10;;;;;;;1.50;1.30;;;3.80;99.90;;;;;;4993337;28;20642;-55
2022/02/20 04:44:35;;;;;;;3.50;1.67;;;3.50;99.90;;;;;;4992975;28;20191;-53
2022/02/20 04:47:01;;;;;;;2.60;1.60;;;;;;;;;;4992814;28;20180;-55
2022/02/20 04:49:27;;;;;;;2.63;1.60;;;;;;;;;;5135328;23;20274;-60
2022/02/20 04:51:52;;;;;;;3.07;1.50;;;3.90;99.90;;;;;;5010866;28;20218;-60
2022/02/20 04:54:18;;;;;;;2.30;1.43;;;3.50;99.90;;;;;;5011434;28;20195;-58
2022/02/20 04:56:44;;;;;;;2.93;1.40;;;4.30;99.90;;;;;;5012143;28;20263;-60
2022/02/20 04:59:11;;;;;;;3.80;1.27;;;3.90;99.90;;;;;;5011425;28;20306;-60
2022/02/20 05:01:38;;;;;;;4.13;1.47;;;3.80;99.90;;;;;;5012206;28;20173;-60
2022/02/20 05:04:03;;;;;;;2.70;1.30;;;3.80;99.90;;;;;;5012252;28;20172;-59
2022/02/20 05:06:29;;;;;;;3.33;1.30;;;3.70;99.90;;;;;;5011826;28;20633;-60
2022/02/20 05:08:55;;;;;;;2.13;1.30;;;3.70;99.90;;;;;;5011900;28;20697;-61
2022/02/20 05:11:21;;;;;;;2.80;1.63;;;3.70;99.90;;;;;;5012329;28;20169;-61
2022/02/20 05:13:46;;;;;;;3.97;1.40;;;3.70;99.90;;;;;;5012217;28;20172;-61
2022/02/20 05:16:12;;;;;;;2.93;1.37;;;4.00;99.90;;;;;;5011997;28;20692;-57
2022/02/20 05:18:37;;;;;;;1.50;1.10;;;3.80;99.90;;;;;;5011943;28;20685;-60
2022/02/20 05:21:03;;;;;;;5.40;1.60;;;4.00;99.90;;;;;;5012513;28;20183;-60
2022/02/20 05:23:29;;;;;;;3.43;1.30;;;3.90;99.90;;;;;;5012183;28;20192;-60
2022/02/20 05:25:54;;;;;;;3.07;1.47;;;3.80;99.90;;;;;;5011814;28;20188;-61
2022/02/20 05:28:20;;;;;;;2.90;1.17;;;3.90;99.90;;;;;;5011318;28;20573;-62
2022/02/20 05:30:45;;;;;;;2.73;1.10;;;4.00;99.90;;;;;;5012046;28;20168;-61
2022/02/20 05:33:11;;;;;;;1.90;1.33;;;3.90;99.90;;;;;;5012062;28;20236;-59
2022/02/20 05:35:37;;;;;;;1.93;1.10;;;4.00;99.90;;;;;;5011684;28;20198;-58
2022/02/20 05:38:02;;;;;;;1.83;1.30;;;3.80;99.90;;;;;;5011845;28;20198;-59
2022/02/20 05:40:28;;;;;;;3.33;1.20;;;4.10;99.90;;;;;;5011915;28;20164;-60
2022/02/20 05:42:57;;;;;;;1.77;1.17;;;4.00;99.90;;;;;;5012007;28;20172;-62
2022/02/20 05:45:23;;;;;;;2.17;1.00;;;3.90;99.90;;;;;;5011721;28;20172;-60
2022/02/20 05:47:49;;;;;;;1.30;1.20;;;;;;;;;;5011677;28;20673;-62
2022/02/20 05:50:15;;;;;;;2.57;1.13;;;4.00;99.90;;;;;;5011751;28;20176;-60
2022/02/20 05:52:40;;;;;;;1.23;0.97;;;3.90;99.90;;;;;;5011847;28;20259;-60
2022/02/20 05:55:08;;;;;;;2.90;1.20;;;4.00;99.90;;;;;;5011725;28;20200;-61
2022/02/20 05:57:42;;;;;;;2.77;1.10;;;4.10;99.90;;;;;;5011672;28;20227;-61
2022/02/20 06:00:09;;;;;;;4.37;1.63;;;4.20;99.90;;;;;;5011406;28;20168;-60
2022/02/20 06:02:35;;;;;;;1.33;0.97;;;4.00;99.90;;;;;;5011734;28;20171;-62
2022/02/20 06:05:01;;;;;;;2.97;1.00;;;4.10;99.90;;;;;;5011696;28;20168;-62
2022/02/20 06:07:26;;;;;;;1.70;1.10;;;4.20;99.90;;;;;;5011599;28;20181;-60
2022/02/20 06:09:52;;;;;;;1.33;1.00;;;;;;;;;;5011600;28;20189;-60
2022/02/20 06:12:18;;;;;;;1.47;1.20;;;4.30;99.90;;;;;;5011705;28;20187;-61
2022/02/20 06:14:43;;;;;;;2.93;1.10;;;4.30;99.90;;;;;;5011459;28;20200;-62
2022/02/20 06:17:09;;;;;;;2.40;1.00;;;4.40;99.90;;;;;;5011659;28;20271;-62
2022/02/20 06:19:35;;;;;;;1.93;1.10;;;4.40;99.90;;;;;;5011358;28;20200;-61
2022/02/20 06:22:01;;;;;;;3.23;0.90;;;4.40;99.90;;;;;;5011629;28;20195;-61
2022/02/20 06:24:26;;;;;;;2.20;1.10;;;4.20;99.90;;;;;;5011475;28;20196;-61
2022/02/20 06:26:52;;;;;;;1.50;1.10;;;4.60;99.90;;;;;;5011605;28;20172;-60
2022/02/20 06:29:18;;;;;;;3.53;1.47;;;4.40;99.90;;;;;;5011274;28;20724;-61
2022/02/20 06:31:43;;;;;;;3.03;1.20;;;4.30;99.90;;;;;;5011751;28;20650;-61
2022/02/20 06:34:09;;;;;;;2.03;1.27;;;4.10;99.90;;;;;;5011587;28;20173;-62
2022/02/20 06:36:35;;;;;;;2.07;1.00;;;4.50;99.90;;;;;;5011223;28;20685;-61
2022/02/20 06:39:02;;;;;;;1.23;1.13;;;4.20;99.90;;;;;;5011315;28;20685;-62
2022/02/20 06:41:28;;;;;;;1.27;1.17;;;4.50;99.90;;;;;;5013671;28;20565;-59
2022/02/20 06:43:53;;;;;;;3.70;1.17;;;4.60;99.90;;;;;;5014967;28;20168;-59
2022/02/20 06:46:19;;;;;;;2.00;1.10;;;;;;;;;;5014747;28;20184;-62
2022/02/20 06:48:45;;;;;;;2.03;1.20;;;;;;;;;;5014484;28;20204;-61
2022/02/20 06:51:11;;;;;;;2.80;1.20;;;;;;;;;;5014778;28;20179;-62
2022/02/20 06:53:37;;;;;;;2.67;1.20;;;;;;;;;;5014699;28;20179;-61
2022/02/20 06:56:03;;;;;;;2.70;1.30;;;4.80;99.90;;;;;;5014521;28;20247;-61
2022/02/20 06:58:28;;;;;;;2.33;1.20;;;4.90;99.90;;;;;;5014479;28;20189;-61
2022/02/20 07:00:54;;;;;;;1.97;0.90;;;4.90;99.90;;;;;;5014407;28;20211;-60
2022/02/20 07:03:20;;;;;;;1.00;0.90;;;;;;;;;;5014622;28;20212;-61
2022/02/20 07:05:45;;;;;;;2.37;0.80;;;5.00;99.90;;;;;;5014172;28;20185;-61
2022/02/20 07:08:11;;;;;;;2.20;1.33;;;4.60;99.90;;;;;;5013906;28;20200;-62
2022/02/20 07:10:36;;;;;;;2.70;1.00;;;4.50;99.90;;;;;;5014704;28;20282;-61
2022/02/20 07:13:02;;;;;;;4.10;1.50;;;;;;;;;;5014383;28;20181;-61
2022/02/20 07:15:28;;;;;;;2.40;1.17;;;4.80;99.90;;;;;;5014058;28;20648;-62
2022/02/20 07:17:53;;;;;;;2.37;1.27;;;4.80;99.90;;;;;;5014053;28;20301;-61
2022/02/20 07:20:19;;;;;;;2.90;1.10;;;5.00;99.90;;;;;;5014091;28;20230;-61
2022/02/20 07:22:45;;;;;;;2.63;1.23;;;4.90;99.90;;;;;;5014219;28;20168;-62
2022/02/20 07:25:12;;;;;;;1.27;1.00;;;5.00;99.90;;;;;;5014062;28;20255;-58
2022/02/20 07:27:42;;;;;;;3.87;1.17;;;5.10;99.90;;;;;;5013965;28;20200;-61
2022/02/20 07:30:10;;;;;;;3.40;1.20;;;5.00;99.90;;;;;;5013857;28;20181;-61
2022/02/20 07:32:36;;;;;;;2.20;1.10;;;5.10;99.90;;;;;;5013964;28;20173;-61
2022/02/20 07:35:03;;;;;;;1.73;1.20;;;5.20;99.90;;;;;;5013737;28;20681;-62
2022/02/20 07:37:29;;;;;;;1.80;1.13;;;5.70;99.90;;;;;;5013850;28;20176;-62
2022/02/20 07:39:58;;;;;;;2.57;1.10;;;5.10;99.90;;;;;;5013718;28;20541;-61
2022/02/20 07:42:24;;;;;;;5.23;1.20;;;5.50;99.90;;;;;;5013716;28;20199;-62
2022/02/20 07:44:51;;;;;;;2.87;1.27;;;5.20;99.90;;;;;;5013573;28;20953;-62
2022/02/20 07:47:16;;;;;;;2.40;1.30;;;5.10;99.90;;;;;;5013802;28;20586;-61
2022/02/20 07:49:42;;;;;;;2.00;1.20;;;5.50;99.90;;;;;;5013517;28;20212;-61
2022/02/20 07:52:07;;;;;;;2.03;1.00;;;5.30;99.90;;;;;;5012864;28;20318;-62
2022/02/20 07:54:33;;;;;;;2.03;1.30;;;;;;;;;;5013357;28;20176;-62
2022/02/20 07:56:59;;;;;;;2.57;1.00;;;5.30;99.90;;;;;;5013396;28;20172;-62
2022/02/20 07:59:28;;;;;;;1.37;1.00;;;5.30;99.90;;;;;;5013394;28;20212;-62
2022/02/20 08:01:53;;;;;;;2.47;1.10;;;5.40;99.90;;;;;;5013324;28;20680;-62
2022/02/20 08:04:19;;;;;;;1.73;1.10;;;5.80;99.90;;;;;;5013229;28;20176;-61
2022/02/20 08:06:45;;;;;;;3.57;0.87;;;5.40;99.90;;;;;;5013033;28;20243;-61
2022/02/20 08:09:11;;;;;;;3.30;1.27;;;5.20;99.90;;;;;;5013012;28;20288;-62
2022/02/20 08:11:36;;;;;;;4.67;1.20;;;5.40;99.90;;;;;;5013053;28;20259;-62
2022/02/20 08:14:03;;;;;;;2.73;0.90;;;5.30;99.90;;;;;;5013047;28;20603;-61
2022/02/20 08:16:28;;;;;;;2.20;1.03;;;;;;;;;;5013231;28;20208;-60
2022/02/20 08:18:54;;;;;;;2.37;0.93;;;;;;;;;;5012906;28;20564;-61
2022/02/20 08:21:20;;;;;;;2.23;1.20;;;5.80;99.90;;;;;;5011738;28;20263;-61
2022/02/20 08:23:46;;;;;;;2.20;1.23;;;5.70;99.90;;;;;;5012956;28;20168;-60
2022/02/20 08:26:12;;;;;;;4.10;1.20;;;5.90;99.90;;;;;;5012736;28;20187;-61
2022/02/20 08:28:37;;;;;;;4.17;1.23;;;6.10;99.90;;;;;;5012732;28;20196;-61
2022/02/20 08:31:04;;;;;;;2.40;1.10;;;;;;;;;;5012835;28;20185;-61
2022/02/20 08:33:29;;;;;;;2.77;1.10;;;3.60;99.90;;;;;;5012856;28;20180;-62
2022/02/20 08:35:55;;;;;;;2.47;1.00;;;5.60;99.90;;;;;;5012716;28;20351;-61
2022/02/20 08:38:21;;;;;;;2.00;1.20;;;6.10;99.90;;;;;;5012661;28;20258;-61
2022/02/20 08:40:49;;;;;;;2.10;1.27;;;6.20;99.90;;;;;;5012600;28;20255;-62
2022/02/20 08:43:14;;;;;;;3.70;1.50;;;6.20;99.90;;;;;;5012732;28;20200;-60
2022/02/20 08:45:41;;;;;;;1.73;0.90;;;;;;;;;;5012599;28;20215;-59
2022/02/20 08:48:07;;;;;;;2.83;1.07;;;;;;;;;;5012289;28;20696;-61
2022/02/20 08:50:33;;;;;;;3.33;1.67;;;;;;;;;;5012420;28;20180;-61
2022/02/20 08:52:59;;;;;;;1.40;0.97;;;;;;;;;;5012488;28;20181;-59
2022/02/20 08:55:25;;;;;;;2.00;1.03;;;;;;;;;;5012097;28;20196;-61
2022/02/20 08:57:51;;;;;;;2.53;1.20;;;;;;;;;;5012398;28;20574;-61
2022/02/20 09:00:17;;;;;;;2.93;1.10;;;;;;;;;;5012463;28;20176;-62
2022/02/20 09:02:42;;;;;;;1.60;1.00;;;6.40;99.90;;;;;;5011987;28;20173;-60
2022/02/20 09:05:08;;;;;;;2.20;1.10;;;;;;;;;;5012093;28;20181;-61
2022/02/20 09:07:34;;;;;;;2.40;1.00;;;6.30;99.90;;;;;;5012265;28;20658;-62
2022/02/20 09:10:00;;;;;;;2.90;0.97;;;6.30;99.90;;;;;;5012101;28;20172;-62
2022/02/20 09:12:26;;;;;;;3.27;0.80;;;6.30;99.90;;;;;;5013192;28;20180;-62
2022/02/20 09:14:51;;;;;;;1.37;0.87;;;6.40;99.90;;;;;;5012244;28;20318;-62
2022/02/20 09:17:17;;;;;;;2.00;1.30;;;6.40;99.90;;;;;;5012284;28;20219;-62
2022/02/20 09:19:42;;;;;;;4.40;1.13;;;6.40;99.90;;;;;;5012110;28;20258;-58
2022/02/20 09:22:08;;;;;;;2.33;1.20;;;6.50;99.90;;;;;;5012009;28;20234;-61
2022/02/20 09:24:33;;;;;;;2.00;1.20;;;6.60;99.90;;;;;;5011648;28;20181;-62
2022/02/20 09:26:59;;;;;;;2.37;1.20;;;6.60;99.90;;;;;;5012022;28;20189;-61
2022/02/20 09:29:24;;;;;;;2.00;1.00;;;6.50;99.90;;;;;;5010760;28;20688;-61
2022/02/20 09:31:50;;;;;;;1.80;0.80;;;6.50;99.90;;;;;;5012104;28;20183;-61
2022/02/20 09:34:15;;;;;;;3.47;1.20;;;6.50;99.90;;;;;;5011907;28;20204;-61
2022/02/20 09:36:41;;;;;;;1.83;1.10;;;6.60;99.90;;;;;;5011671;28;20211;-61
2022/02/20 09:39:07;;;;;;;4.03;1.40;;;6.90;99.90;;;;;;5011626;28;20203;-60
2022/02/20 09:41:33;;;;;;;2.10;1.07;;;7.00;99.90;;;;;;5011862;28;20199;-61
2022/02/20 09:44:00;;;;;;;4.53;1.07;;;7.10;99.90;;;;;;5012101;28;20646;-60
2022/02/20 09:46:28;;;;;;;2.67;1.13;;;7.10;99.90;;;;;;5011651;28;20168;-61
2022/02/20 09:48:56;;;;;;;2.67;1.07;;;7.00;99.90;;;;;;5011545;28;20663;-61
2022/02/20 09:51:22;;;;;;;2.97;0.97;;;7.00;99.90;;;;;;5011814;28;20187;-61
2022/02/20 09:53:48;;;;;;;3.13;1.00;;;7.10;99.90;;;;;;5011783;28;20177;-61
2022/02/20 09:56:14;;;;;;;2.57;1.00;;;7.20;99.90;;;;;;5011476;28;20608;-62
2022/02/20 09:58:40;;;;;;;1.67;0.97;;;8.90;99.90;;;;;;5011759;28;20200;-61
2022/02/20 10:01:09;;;;;;;1.83;1.00;;;7.50;99.90;;;;;;5011758;28;20169;-60
2022/02/20 10:03:36;;;;;;;1.73;0.93;;;7.70;99.90;;;;;;5011741;28;20169;-62
2022/02/20 10:06:04;;;;;;;4.17;1.20;;;9.50;99.90;;;;;;5011474;28;20179;-61
2022/02/20 10:08:46;;;;;;;3.23;1.03;;;8.10;99.90;;;;;;5011355;28;20196;-61
2022/02/20 10:11:26;;;;;;;1.20;0.90;;;10.10;99.90;;;;;;5011695;28;20208;-62
2022/02/20 10:13:55;;;;;;;1.17;0.80;;;8.20;99.90;;;;;;5011901;28;20613;-62
2022/02/20 10:16:26;;;;;;;2.87;0.93;;;8.30;99.90;;;;;;5015178;28;20647;-62
2022/02/20 10:18:54;;;;;;;3.20;0.93;;;8.50;99.90;;;;;;5015078;28;20228;-61
2022/02/20 10:21:25;;;;;;;3.13;0.90;;;8.60;99.90;;;;;;5015216;28;20239;-61
2022/02/20 10:23:53;;;;;;;2.50;0.80;;;8.70;99.90;;;;;;5015223;28;20215;-61
2022/02/20 10:26:20;;;;;;;2.27;0.97;;;8.70;99.90;;;;;;5014990;28;20187;-61
2022/02/20 10:29:10;;;;;;;2.47;1.13;;;9.00;99.90;;;;;;5014964;28;20247;-61
2022/02/20 10:31:43;;;;;;;3.63;1.10;;;9.30;99.90;;;;;;5015110;28;20169;-60
2022/02/20 10:34:13;;;;;;;2.07;1.00;;;9.80;99.90;;;;;;5015071;28;20203;-61
2022/02/20 10:36:49;;;;;;;1.20;0.83;;;10.40;99.90;;;;;;5014994;28;20273;-61
2022/02/20 10:39:35;;;;;;;0.97;0.67;;;11.00;99.90;;;;;;5014650;28;20306;-61
2022/02/20 10:42:13;;;;;;;3.30;0.83;;;12.10;99.90;;;;;;5014825;28;20185;-61
2022/02/20 10:44:49;;;;;;;1.80;1.00;;;13.30;99.90;;;;;;5014738;28;20258;-62
2022/02/20 10:47:15;;;;;;;1.07;0.90;;;15.00;99.80;;;;;;5014936;28;20257;-61
2022/02/20 10:49:41;;;;;;;2.40;0.83;;;16.10;99.10;;;;;;5069851;23;20315;-57
2022/02/20 10:52:20;;;;;;;1.97;0.90;;;15.40;98.00;;;;;;5010245;28;20178;-56
2022/02/20 10:55:08;;;;;;;2.23;1.20;;;15.10;97.80;;;;;;5007416;28;20194;-55
2022/02/20 10:57:39;;;;;;;2.60;0.80;;;14.10;98.80;;;;;;5014300;28;20169;-58
2022/02/20 11:00:13;;;;;;;2.30;0.80;;;14.30;98.60;;;;;;5032187;28;20288;-54
2022/02/20 11:02:39;;;;;;;1.20;0.63;;;13.90;98.00;;;;;;5034096;28;20565;-56
2022/02/20 11:05:05;;;;;;;1.57;0.90;;;13.40;98.50;;;;;;5034134;28;20183;-57
2022/02/20 11:07:34;;;;;;;1.47;0.80;;;12.90;99.20;;;;;;5033405;28;20661;-51
2022/02/20 11:10:00;;;;;;;1.23;0.70;;;13.40;98.50;;;;;;5033675;28;20609;-57
2022/02/20 11:12:26;;;;;;;1.63;0.77;;;14.30;98.50;;;;;;5034186;28;20210;-54
2022/02/20 11:14:53;;;;;;;1.00;0.63;;;13.60;98.10;;;;;;5033986;28;20171;-54
2022/02/20 11:17:22;;;;;;;2.37;0.87;;;13.50;98.90;;;;;;5033989;28;20192;-52
2022/02/20 11:19:51;;;;;;;1.07;0.63;;;12.60;99.40;;;;;;5033760;28;20195;-58
2022/02/20 11:22:20;;;;;;;1.80;0.80;;;11.70;99.90;;;;;;5033799;28;20210;-54
2022/02/20 11:24:48;;;;;;;1.43;0.70;;;11.20;99.90;;;;;;5033110;28;20518;-56
2022/02/20 11:27:15;;;;;;;1.53;0.80;;;10.90;99.90;;;;;;5032933;28;20176;-54
2022/02/20 11:29:41;;;;;;;2.23;0.80;;;10.70;99.90;;;;;;5033518;28;20314;-53
2022/02/20 11:32:07;;;;;;;1.43;0.67;;;10.70;99.90;;;;;;5033722;28;20640;-53
2022/02/20 11:34:42;;;;;;;2.30;0.77;;;10.60;99.90;;;;;;5033640;28;20199;-53
2022/02/20 11:37:09;;;;;;;1.90;0.73;;;10.60;99.90;;;;;;5033675;28;20179;-52
2022/02/20 11:39:34;;;;;;;1.97;1.00;;;10.30;99.90;;;;;;5032196;28;20192;-52
2022/02/20 11:42:20;;;;;;;1.53;0.70;;;10.00;99.90;;;;;;5033503;28;20262;-51
2022/02/20 11:44:50;;;;;;;2.17;0.87;;;10.00;99.90;;;;;;5032067;28;20266;-53
2022/02/20 11:47:40;;;;;;;1.87;0.80;;;10.00;99.90;;;;;;5033673;28;20534;-56
2022/02/20 11:50:18;;;;;;;1.90;0.90;;;10.00;99.90;;;;;;5030102;28;20218;-54
2022/02/20 11:53:05;;;;;;;1.03;0.70;;;10.00;99.90;;;;;;5033425;28;20163;-52
2022/02/20 11:55:38;;;;;;;1.30;0.77;;;10.00;99.90;;;;;;5033203;28;20203;-53
2022/02/20 11:58:23;;;;;;;1.93;0.70;;;9.80;99.90;;;;;;5032390;28;20185;-54
2022/02/20 12:00:54;;;;;;;2.33;0.90;;;9.90;99.90;;;;;;5033128;28;20164;-55
2022/02/20 12:03:21;;;;;;;2.77;1.00;;;9.80;99.90;;;;;;5033178;28;20171;-50
2022/02/20 12:06:08;;;;;;;2.63;1.00;;;9.80;99.90;;;;;;5031810;28;20192;-51
2022/02/20 12:08:46;;;;;;;2.90;0.80;;;9.90;99.90;;;;;;5032856;28;20199;-51
2022/02/20 12:11:18;;;;;;;1.50;0.80;;;10.10;99.90;;;;;;5033007;28;20203;-54
2022/02/20 12:13:58;;;;;;;1.07;0.70;;;10.30;99.90;;;;;;5033050;28;20253;-52
2022/02/20 12:16:38;;;;;;;1.77;0.90;;;10.40;99.90;;;;;;5032886;28;20557;-52
2022/02/20 12:19:19;;;;;;;1.80;0.80;;;10.60;99.90;;;;;;5032687;28;20637;-53
2022/02/20 12:21:52;;;;;;;1.93;0.80;;;11.00;99.90;;;;;;5032760;28;20175;-53
2022/02/20 12:24:21;;;;;;;1.27;0.80;;;11.70;99.90;;;;;;5032765;28;20173;-53
2022/02/20 12:26:54;;;;;;;2.50;0.93;;;12.10;99.90;;;;;;5032737;28;20179;-52
2022/02/20 12:29:23;;;;;;;1.50;0.63;;;11.90;99.90;;;;;;5032626;28;20538;-55
2022/02/20 12:32:12;;;;;;;2.23;1.13;;;11.40;99.90;;;;;;5032658;28;20715;-52
2022/02/20 12:34:44;;;;;;;1.00;0.90;;;11.20;99.90;;;;;;5032450;28;20191;-51
2022/02/20 12:37:14;;;;;;;2.43;0.90;;;10.80;99.90;;;;;;5032391;28;20586;-52
2022/02/20 12:39:40;;;;;;;1.10;0.70;;;10.50;99.90;;;;;;5032288;28;20568;-50
2022/02/20 12:42:06;;;;;;;1.60;0.90;;;10.40;99.90;;;;;;5031103;28;20196;-53
2022/02/20 12:44:32;;;;;;;2.50;1.00;;;10.40;99.90;;;;;;5032307;28;20175;-49
2022/02/20 12:46:59;;;;;;;2.03;0.80;;;10.20;99.90;;;;;;5032294;28;20221;-56
2022/02/20 12:49:25;;;;;;;1.87;1.10;;;10.20;99.90;;;;;;5031926;28;20677;-54
2022/02/20 12:52:11;;;;;;;1.60;0.97;;;10.20;99.90;;;;;;5032411;28;20229;-56
2022/02/20 12:54:37;;;;;;;1.27;0.70;;;10.10;99.90;;;;;;5031913;28;20187;-53
2022/02/20 12:57:05;;;;;;;1.83;0.83;;;10.20;99.90;;;;;;5030972;28;20696;-51
2022/02/20 12:59:30;;;;;;;0.80;0.80;;;10.40;99.90;;;;;;5031896;28;20588;-53
2022/02/20 13:02:01;;;;;;;2.00;1.00;;;10.50;99.90;;;;;;5030773;28;20183;-55
2022/02/20 13:04:28;;;;;;;1.30;0.77;;;10.40;99.90;;;;;;5031965;28;20172;-56
2022/02/20 13:07:02;;;;;;;1.57;0.87;;;11.20;99.90;;;;;;5031405;28;20226;-56
2022/02/20 13:09:47;;;;;;;1.73;0.70;;;10.80;99.90;;;;;;5031624;28;20215;-50